Kezdőlap
METAR-TAF:

METAR-TAF

Repülőterek :

Rand Airport

Germiston, Dél-afrikai Köztársaság

földrajzi szélesség: 26-14-33S, földrajzi hosszúság: 028-09-04E, magasság: 1671 m

Jelenlegi meteorológiai megfigyelések

A jelentés 23 perccel ezelõtt készült, 06:00 UTC
Északi szél 14 kt
Hőmérséklet 17°C
Páratartalom 32%
Légköri nyomás 1027 hPa
Látótávolság 10 km, vagy több
felhőtlen 1500 m magasságban, és nincs gomolyfelhõ

METAR: FAGM 160600Z 35014KT CAVOK 17/00 Q1027

Idő: 08:23 (06:23 UTC)


TAF: hiányzik

Meteorológiai megfigyelések és előrejelzések több, mint 4000 repülőtéren (METAR és TAF jelentéseket).

A térképen piros és sárga pontok jelzik az elérhető meteorológiai állomásokat.

Mozgassa az egeret a pont fölött, hogy megjelenjen az állomás neve.

Azután kattintson az időjárási megfigyelések és előrejelzések megtekintéséhez.

A térkép megváltoztatása: kattintson a fekete keresztel jelölt zöld gombra ráközelítéshez, a vonallal jelölt zöld gombra távolításhoz, vagy a zöld nyilakra a szomszédos térképek eléréséhez.


METAR-TAF: